sensor_id;sensor_type;location;lat;lon;timestamp;pressure;altitude;pressure_sealevel;temperature;humidity
20027;BME280;10174;42.688;23.344;2023-06-10T00:00:23;94915.16;;;17.33;96.70
20027;BME280;10174;42.688;23.344;2023-06-10T00:02:49;94893.84;;;17.09;97.10
20027;BME280;10174;42.688;23.344;2023-06-10T00:05:14;94933.81;;;17.26;97.87
20027;BME280;10174;42.688;23.344;2023-06-10T00:07:41;94839.66;;;16.46;98.85
20027;BME280;10174;42.688;23.344;2023-06-10T00:10:07;94925.78;;;17.12;99.09
20027;BME280;10174;42.688;23.344;2023-06-10T00:12:33;94919.88;;;17.19;98.35
20027;BME280;10174;42.688;23.344;2023-06-10T00:15:06;94910.47;;;17.16;99.38
20027;BME280;10174;42.688;23.344;2023-06-10T00:17:32;94915.25;;;17.19;98.90
20027;BME280;10174;42.688;23.344;2023-06-10T00:19:58;94931.75;;;17.32;98.22
20027;BME280;10174;42.688;23.344;2023-06-10T00:22:23;94923.13;;;17.30;97.86
20027;BME280;10174;42.688;23.344;2023-06-10T00:24:49;94923.13;;;17.30;97.53
20027;BME280;10174;42.688;23.344;2023-06-10T00:27:16;94929.56;;;17.42;97.08
20027;BME280;10174;42.688;23.344;2023-06-10T00:29:41;94916.94;;;17.38;97.91
20027;BME280;10174;42.688;23.344;2023-06-10T00:32:07;94919.47;;;17.43;97.98
20027;BME280;10174;42.688;23.344;2023-06-10T00:34:32;94872.31;;;17.13;97.76
20027;BME280;10174;42.688;23.344;2023-06-10T00:36:58;94933.09;;;17.52;98.24
20027;BME280;10174;42.688;23.344;2023-06-10T00:39:23;94939.47;;;17.56;98.33
20027;BME280;10174;42.688;23.344;2023-06-10T00:41:49;94939.66;;;17.59;97.56
20027;BME280;10174;42.688;23.344;2023-06-10T00:44:15;94928.09;;;17.45;98.21
20027;BME280;10174;42.688;23.344;2023-06-10T00:46:41;94940.25;;;17.48;97.69
20027;BME280;10174;42.688;23.344;2023-06-10T00:49:06;94936.59;;;17.52;97.85
20027;BME280;10174;42.688;23.344;2023-06-10T00:51:33;94919.81;;;17.50;97.87
20027;BME280;10174;42.688;23.344;2023-06-10T00:53:59;94934.22;;;17.59;97.61
20027;BME280;10174;42.688;23.344;2023-06-10T00:56:25;94912.78;;;17.49;97.39
20027;BME280;10174;42.688;23.344;2023-06-10T00:58:50;94930.88;;;17.71;97.03
20027;BME280;10174;42.688;23.344;2023-06-10T01:01:16;94942.38;;;17.68;96.56
20027;BME280;10174;42.688;23.344;2023-06-10T01:03:43;94860.97;;;17.11;96.92
20027;BME280;10174;42.688;23.344;2023-06-10T01:06:23;94943.47;;;17.58;97.29
20027;BME280;10174;42.688;23.344;2023-06-10T01:09:12;94943.31;;;17.55;98.13
20027;BME280;10174;42.688;23.344;2023-06-10T01:11:52;94944.91;;;17.65;96.96
20027;BME280;10174;42.688;23.344;2023-06-10T01:14:20;94918.53;;;17.48;97.31
20027;BME280;10174;42.688;23.344;2023-06-10T01:16:46;94934.06;;;17.65;96.59
20027;BME280;10174;42.688;23.344;2023-06-10T01:19:11;94948.78;;;17.72;96.55
20027;BME280;10174;42.688;23.344;2023-06-10T01:21:38;94950.53;;;17.77;96.37
20027;BME280;10174;42.688;23.344;2023-06-10T01:24:04;94944.16;;;17.73;96.05
20027;BME280;10174;42.688;23.344;2023-06-10T01:26:34;94921.44;;;17.60;96.28
20027;BME280;10174;42.688;23.344;2023-06-10T01:29:28;94937.75;;;17.86;95.70
20027;BME280;10174;42.688;23.344;2023-06-10T01:32:08;94896.50;;;17.49;95.89
20027;BME280;10174;42.688;23.344;2023-06-10T01:34:37;94922.91;;;17.75;95.62
20027;BME280;10174;42.688;23.344;2023-06-10T01:37:05;94941.81;;;17.97;94.96
20027;BME280;10174;42.688;23.344;2023-06-10T01:39:31;94937.91;;;17.81;95.49
20027;BME280;10174;42.688;23.344;2023-06-10T01:41:57;94949.72;;;17.68;97.14
20027;BME280;10174;42.688;23.344;2023-06-10T01:44:23;94908.16;;;17.50;97.24
20027;BME280;10174;42.688;23.344;2023-06-10T01:46:49;94899.03;;;17.37;98.15
20027;BME280;10174;42.688;23.344;2023-06-10T01:49:14;94937.53;;;17.48;98.59
20027;BME280;10174;42.688;23.344;2023-06-10T01:51:40;94904.16;;;17.47;97.95
20027;BME280;10174;42.688;23.344;2023-06-10T01:54:06;94933.09;;;17.60;98.52
20027;BME280;10174;42.688;23.344;2023-06-10T01:56:32;94908.81;;;17.55;98.46
20027;BME280;10174;42.688;23.344;2023-06-10T01:58:57;94925.94;;;17.73;97.87
20027;BME280;10174;42.688;23.344;2023-06-10T02:01:27;94909.94;;;17.72;98.29
20027;BME280;10174;42.688;23.344;2023-06-10T02:03:52;94886.28;;;17.63;97.30
20027;BME280;10174;42.688;23.344;2023-06-10T02:06:18;94902.94;;;17.88;96.65
20027;BME280;10174;42.688;23.344;2023-06-10T02:08:43;94919.25;;;17.88;96.73
20027;BME280;10174;42.688;23.344;2023-06-10T02:11:08;94833.72;;;17.33;97.14
20027;BME280;10174;42.688;23.344;2023-06-10T02:13:34;94897.19;;;17.81;96.55
20027;BME280;10174;42.688;23.344;2023-06-10T02:16:00;94923.56;;;17.89;96.61
20027;BME280;10174;42.688;23.344;2023-06-10T02:18:26;94917.28;;;17.80;97.27
20027;BME280;10174;42.688;23.344;2023-06-10T02:20:53;94914.41;;;17.68;97.24
20027;BME280;10174;42.688;23.344;2023-06-10T02:23:19;94872.22;;;17.44;98.12
20027;BME280;10174;42.688;23.344;2023-06-10T02:25:44;94888.81;;;17.51;98.41
20027;BME280;10174;42.688;23.344;2023-06-10T02:28:10;94803.50;;;17.00;98.51
20027;BME280;10174;42.688;23.344;2023-06-10T02:30:35;94895.25;;;17.64;98.55
20027;BME280;10174;42.688;23.344;2023-06-10T02:33:02;94911.22;;;17.83;98.17
20027;BME280;10174;42.688;23.344;2023-06-10T02:35:27;94890.13;;;17.80;98.62
20027;BME280;10174;42.688;23.344;2023-06-10T02:37:52;94896.53;;;17.84;98.56
20027;BME280;10174;42.688;23.344;2023-06-10T02:40:18;94885.50;;;17.72;98.60
20027;BME280;10174;42.688;23.344;2023-06-10T02:42:43;94864.25;;;17.74;97.57
20027;BME280;10174;42.688;23.344;2023-06-10T02:45:09;94892.25;;;17.92;97.44
20027;BME280;10174;42.688;23.344;2023-06-10T02:47:34;94867.75;;;17.83;97.52
20027;BME280;10174;42.688;23.344;2023-06-10T02:49:59;94779.56;;;17.19;97.99
20027;BME280;10174;42.688;23.344;2023-06-10T02:52:25;94810.56;;;17.36;98.61
20027;BME280;10174;42.688;23.344;2023-06-10T02:54:50;94831.50;;;17.44;98.46
20027;BME280;10174;42.688;23.344;2023-06-10T02:57:15;94886.94;;;17.78;98.21
20027;BME280;10174;42.688;23.344;2023-06-10T02:59:41;94873.03;;;17.62;98.75
20027;BME280;10174;42.688;23.344;2023-06-10T03:02:06;94891.56;;;17.60;99.65
20027;BME280;10174;42.688;23.344;2023-06-10T03:04:32;94890.13;;;17.62;100.00
20027;BME280;10174;42.688;23.344;2023-06-10T03:06:58;94893.97;;;17.61;100.00
20027;BME280;10174;42.688;23.344;2023-06-10T03:09:25;94809.41;;;17.19;100.00
20027;BME280;10174;42.688;23.344;2023-06-10T03:11:51;94779.38;;;16.98;100.00
20027;BME280;10174;42.688;23.344;2023-06-10T03:14:16;94804.78;;;17.11;100.00
20027;BME280;10174;42.688;23.344;2023-06-10T03:16:42;94900.50;;;17.69;100.00
20027;BME280;10174;42.688;23.344;2023-06-10T03:19:08;94889.97;;;17.68;100.00
20027;BME280;10174;42.688;23.344;2023-06-10T03:21:34;94864.25;;;17.56;100.00
20027;BME280;10174;42.688;23.344;2023-06-10T03:24:00;94905.63;;;17.79;100.00
20027;BME280;10174;42.688;23.344;2023-06-10T03:26:26;94917.47;;;17.75;100.00
20027;BME280;10174;42.688;23.344;2023-06-10T03:28:52;94926.59;;;17.79;100.00
20027;BME280;10174;42.688;23.344;2023-06-10T03:31:18;94924.50;;;17.76;100.00
20027;BME280;10174;42.688;23.344;2023-06-10T03:33:43;94930.38;;;17.60;100.00
20027;BME280;10174;42.688;23.344;2023-06-10T03:36:09;94902.22;;;17.30;100.00
20027;BME280;10174;42.688;23.344;2023-06-10T03:38:35;94924.88;;;17.25;100.00
20027;BME280;10174;42.688;23.344;2023-06-10T03:41:00;94884.59;;;16.79;100.00
20027;BME280;10174;42.688;23.344;2023-06-10T03:43:26;94943.44;;;17.01;100.00
20027;BME280;10174;42.688;23.344;2023-06-10T03:45:52;94931.34;;;17.07;100.00
20027;BME280;10174;42.688;23.344;2023-06-10T03:48:18;94931.13;;;16.95;100.00
20027;BME280;10174;42.688;23.344;2023-06-10T03:50:44;94916.22;;;16.83;100.00
20027;BME280;10174;42.688;23.344;2023-06-10T03:53:09;94900.69;;;16.75;100.00
20027;BME280;10174;42.688;23.344;2023-06-10T03:55:35;94895.88;;;16.72;100.00
20027;BME280;10174;42.688;23.344;2023-06-10T03:58:01;94921.41;;;16.94;100.00
20027;BME280;10174;42.688;23.344;2023-06-10T04:00:27;94919.31;;;16.90;100.00
20027;BME280;10174;42.688;23.344;2023-06-10T04:02:52;94784.59;;;16.06;100.00
20027;BME280;10174;42.688;23.344;2023-06-10T04:05:19;94886.28;;;16.66;100.00
20027;BME280;10174;42.688;23.344;2023-06-10T04:07:47;94780.88;;;15.93;100.00
20027;BME280;10174;42.688;23.344;2023-06-10T04:10:14;94916.91;;;16.89;100.00
20027;BME280;10174;42.688;23.344;2023-06-10T04:12:40;94926.63;;;16.90;100.00
20027;BME280;10174;42.688;23.344;2023-06-10T04:15:06;94911.53;;;16.75;100.00
20027;BME280;10174;42.688;23.344;2023-06-10T04:17:32;94929.31;;;16.81;100.00
20027;BME280;10174;42.688;23.344;2023-06-10T04:19:57;94943.03;;;16.85;100.00
20027;BME280;10174;42.688;23.344;2023-06-10T04:22:23;94867.00;;;16.36;100.00
20027;BME280;10174;42.688;23.344;2023-06-10T04:24:48;94931.03;;;16.77;100.00
20027;BME280;10174;42.688;23.344;2023-06-10T04:27:14;94930.41;;;16.80;100.00
20027;BME280;10174;42.688;23.344;2023-06-10T04:29:40;94928.78;;;16.79;100.00
20027;BME280;10174;42.688;23.344;2023-06-10T04:32:06;94933.38;;;16.92;100.00
20027;BME280;10174;42.688;23.344;2023-06-10T04:34:33;94919.31;;;16.90;100.00
20027;BME280;10174;42.688;23.344;2023-06-10T04:36:58;94795.66;;;16.18;99.91
20027;BME280;10174;42.688;23.344;2023-06-10T04:39:24;94894.13;;;16.99;99.89
20027;BME280;10174;42.688;23.344;2023-06-10T04:41:49;94917.84;;;17.24;98.74
20027;BME280;10174;42.688;23.344;2023-06-10T04:44:14;94907.66;;;17.39;99.87
20027;BME280;10174;42.688;23.344;2023-06-10T04:46:40;94910.72;;;17.63;97.71
20027;BME280;10174;42.688;23.344;2023-06-10T04:49:05;94927.53;;;17.83;98.89
20027;BME280;10174;42.688;23.344;2023-06-10T04:51:31;94927.38;;;17.79;99.81
20027;BME280;10174;42.688;23.344;2023-06-10T04:54:00;94924.03;;;17.83;99.10
20027;BME280;10174;42.688;23.344;2023-06-10T04:56:29;94921.81;;;17.93;99.17
20027;BME280;10174;42.688;23.344;2023-06-10T04:58:59;94859.94;;;17.64;97.55
20027;BME280;10174;42.688;23.344;2023-06-10T05:01:24;94891.88;;;17.85;97.25
20027;BME280;10174;42.688;23.344;2023-06-10T05:03:50;94918.63;;;18.09;96.92
20027;BME280;10174;42.688;23.344;2023-06-10T05:06:15;94926.78;;;18.26;95.98
20027;BME280;10174;42.688;23.344;2023-06-10T05:08:40;94824.16;;;17.79;94.54
20027;BME280;10174;42.688;23.344;2023-06-10T05:11:06;94841.91;;;17.94;94.11
20027;BME280;10174;42.688;23.344;2023-06-10T05:13:32;94929.78;;;18.42;94.27
20027;BME280;10174;42.688;23.344;2023-06-10T05:15:58;94921.75;;;18.63;92.50
20027;BME280;10174;42.688;23.344;2023-06-10T05:18:23;94902.59;;;18.51;92.96
20027;BME280;10174;42.688;23.344;2023-06-10T05:20:48;94927.84;;;18.60;92.80
20027;BME280;10174;42.688;23.344;2023-06-10T05:23:14;94883.94;;;18.23;93.56
20027;BME280;10174;42.688;23.344;2023-06-10T05:25:40;94882.78;;;18.24;93.02
20027;BME280;10174;42.688;23.344;2023-06-10T05:28:06;94922.88;;;18.54;93.90
20027;BME280;10174;42.688;23.344;2023-06-10T05:30:35;94890.44;;;18.40;94.46
20027;BME280;10174;42.688;23.344;2023-06-10T05:33:00;94761.06;;;17.39;94.79
20027;BME280;10174;42.688;23.344;2023-06-10T05:35:26;94873.66;;;18.29;94.58
20027;BME280;10174;42.688;23.344;2023-06-10T05:37:51;94907.38;;;18.54;93.90
20027;BME280;10174;42.688;23.344;2023-06-10T05:40:17;94914.56;;;18.50;93.94
20027;BME280;10174;42.688;23.344;2023-06-10T05:42:42;94929.78;;;18.51;94.39
20027;BME280;10174;42.688;23.344;2023-06-10T05:45:08;94917.91;;;18.64;93.85
20027;BME280;10174;42.688;23.344;2023-06-10T05:47:33;94932.31;;;18.74;92.94
20027;BME280;10174;42.688;23.344;2023-06-10T05:49:59;94907.06;;;18.47;93.81
20027;BME280;10174;42.688;23.344;2023-06-10T05:52:25;94915.16;;;18.64;93.38
20027;BME280;10174;42.688;23.344;2023-06-10T05:54:51;94815.81;;;18.20;92.42
20027;BME280;10174;42.688;23.344;2023-06-10T05:57:16;94933.78;;;19.10;92.20
20027;BME280;10174;42.688;23.344;2023-06-10T05:59:42;94817.03;;;18.40;91.78
20027;BME280;10174;42.688;23.344;2023-06-10T06:02:07;94923.84;;;19.14;90.65
20027;BME280;10174;42.688;23.344;2023-06-10T06:04:34;94912.03;;;19.10;90.05
20027;BME280;10174;42.688;23.344;2023-06-10T06:06:59;94917.09;;;19.20;88.01
20027;BME280;10174;42.688;23.344;2023-06-10T06:09:25;94906.50;;;19.27;88.43
20027;BME280;10174;42.688;23.344;2023-06-10T06:11:50;94918.50;;;19.56;88.00
20027;BME280;10174;42.688;23.344;2023-06-10T06:14:16;94918.31;;;19.31;88.66
20027;BME280;10174;42.688;23.344;2023-06-10T06:16:41;94915.03;;;19.17;88.67
20027;BME280;10174;42.688;23.344;2023-06-10T06:19:07;94929.66;;;19.03;88.53
20027;BME280;10174;42.688;23.344;2023-06-10T06:21:32;94899.81;;;19.16;88.12
20027;BME280;10174;42.688;23.344;2023-06-10T06:23:58;94859.66;;;19.13;85.92
20027;BME280;10174;42.688;23.344;2023-06-10T06:26:24;94913.63;;;19.70;86.22
20027;BME280;10174;42.688;23.344;2023-06-10T06:28:50;94933.31;;;19.97;85.42
20027;BME280;10174;42.688;23.344;2023-06-10T06:31:16;94844.50;;;19.54;84.38
20027;BME280;10174;42.688;23.344;2023-06-10T06:33:41;94931.66;;;20.26;83.95
20027;BME280;10174;42.688;23.344;2023-06-10T06:36:07;94914.00;;;20.44;82.10
20027;BME280;10174;42.688;23.344;2023-06-10T06:38:32;94915.50;;;20.42;80.71
20027;BME280;10174;42.688;23.344;2023-06-10T06:40:57;94920.28;;;20.24;81.21
20027;BME280;10174;42.688;23.344;2023-06-10T06:43:28;94922.16;;;20.11;81.85
20027;BME280;10174;42.688;23.344;2023-06-10T06:45:53;94922.31;;;20.15;83.21
20027;BME280;10174;42.688;23.344;2023-06-10T06:48:19;94916.69;;;20.11;83.81
20027;BME280;10174;42.688;23.344;2023-06-10T06:50:44;94924.16;;;20.02;84.47
20027;BME280;10174;42.688;23.344;2023-06-10T06:53:10;94881.38;;;19.72;83.89
20027;BME280;10174;42.688;23.344;2023-06-10T06:55:35;94889.19;;;19.83;84.50
20027;BME280;10174;42.688;23.344;2023-06-10T06:58:00;94894.50;;;20.00;82.54
20027;BME280;10174;42.688;23.344;2023-06-10T07:00:29;94913.56;;;20.21;80.78
20027;BME280;10174;42.688;23.344;2023-06-10T07:02:54;94894.78;;;20.07;79.56
20027;BME280;10174;42.688;23.344;2023-06-10T07:05:20;94897.53;;;20.41;77.90
20027;BME280;10174;42.688;23.344;2023-06-10T07:07:46;94911.53;;;20.52;76.59
20027;BME280;10174;42.688;23.344;2023-06-10T07:10:11;94911.75;;;20.46;77.36
20027;BME280;10174;42.688;23.344;2023-06-10T07:12:37;94896.03;;;20.31;78.53
20027;BME280;10174;42.688;23.344;2023-06-10T07:15:02;94847.91;;;19.93;77.65
20027;BME280;10174;42.688;23.344;2023-06-10T07:17:28;94908.34;;;20.83;75.48
20027;BME280;10174;42.688;23.344;2023-06-10T07:19:53;94884.50;;;21.05;72.18
20027;BME280;10174;42.688;23.344;2023-06-10T07:22:22;94902.78;;;21.04;71.40
20027;BME280;10174;42.688;23.344;2023-06-10T07:24:47;94904.38;;;20.80;69.71
20027;BME280;10174;42.688;23.344;2023-06-10T07:27:13;94887.09;;;20.55;72.35
20027;BME280;10174;42.688;23.344;2023-06-10T07:29:38;94815.06;;;20.23;72.61
20027;BME280;10174;42.688;23.344;2023-06-10T07:32:04;94899.84;;;21.09;70.83
20027;BME280;10174;42.688;23.344;2023-06-10T07:34:29;94897.81;;;21.18;69.91
20027;BME280;10174;42.688;23.344;2023-06-10T07:36:55;94904.41;;;21.17;68.47
20027;BME280;10174;42.688;23.344;2023-06-10T07:39:20;94898.72;;;21.72;65.34
20027;BME280;10174;42.688;23.344;2023-06-10T07:41:46;94871.59;;;21.79;62.62
20027;BME280;10174;42.688;23.344;2023-06-10T07:44:11;94894.16;;;21.76;63.60
20027;BME280;10174;42.688;23.344;2023-06-10T07:46:36;94885.81;;;21.85;62.78
20027;BME280;10174;42.688;23.344;2023-06-10T07:49:02;94796.31;;;21.16;63.31
20027;BME280;10174;42.688;23.344;2023-06-10T07:51:27;94893.81;;;21.41;61.97
20027;BME280;10174;42.688;23.344;2023-06-10T07:53:52;94902.34;;;21.88;62.27
20027;BME280;10174;42.688;23.344;2023-06-10T07:56:18;94890.91;;;21.99;61.52
20027;BME280;10174;42.688;23.344;2023-06-10T07:58:45;94904.25;;;22.29;61.94
20027;BME280;10174;42.688;23.344;2023-06-10T08:01:11;94900.19;;;22.22;61.44
20027;BME280;10174;42.688;23.344;2023-06-10T08:03:36;94903.59;;;22.32;59.96
20027;BME280;10174;42.688;23.344;2023-06-10T08:06:02;94889.78;;;22.40;58.54
20027;BME280;10174;42.688;23.344;2023-06-10T08:08:27;94901.25;;;22.46;54.67
20027;BME280;10174;42.688;23.344;2023-06-10T08:10:53;94851.63;;;22.19;56.20
20027;BME280;10174;42.688;23.344;2023-06-10T08:13:18;94897.78;;;22.62;57.23
20027;BME280;10174;42.688;23.344;2023-06-10T08:15:43;94844.91;;;22.89;55.30
20027;BME280;10174;42.688;23.344;2023-06-10T08:18:13;94882.09;;;23.38;55.46
20027;BME280;10174;42.688;23.344;2023-06-10T08:20:38;94868.91;;;23.44;54.98
20027;BME280;10174;42.688;23.344;2023-06-10T08:23:03;94788.09;;;22.54;56.35
20027;BME280;10174;42.688;23.344;2023-06-10T08:25:29;94880.75;;;23.48;55.19
20027;BME280;10174;42.688;23.344;2023-06-10T08:27:54;94869.66;;;23.09;53.19
20027;BME280;10174;42.688;23.344;2023-06-10T08:30:21;94870.66;;;23.52;54.21
20027;BME280;10174;42.688;23.344;2023-06-10T08:32:47;94863.19;;;24.86;51.54
20027;BME280;10174;42.688;23.344;2023-06-10T08:35:12;94852.41;;;27.58;43.91
20027;BME280;10174;42.688;23.344;2023-06-10T08:37:37;94839.56;;;29.79;39.58
20027;BME280;10174;42.688;23.344;2023-06-10T08:40:03;94845.94;;;29.37;39.31
20027;BME280;10174;42.688;23.344;2023-06-10T08:45:04;94855.69;;;31.02;36.45
20027;BME280;10174;42.688;23.344;2023-06-10T08:47:32;94844.00;;;30.65;35.91
20027;BME280;10174;42.688;23.344;2023-06-10T08:50:03;94836.91;;;30.57;36.87
20027;BME280;10174;42.688;23.344;2023-06-10T08:52:36;94856.97;;;29.58;37.49
20027;BME280;10174;42.688;23.344;2023-06-10T08:55:18;94847.09;;;29.72;37.38
20027;BME280;10174;42.688;23.344;2023-06-10T08:57:48;94844.38;;;32.79;32.36
20027;BME280;10174;42.688;23.344;2023-06-10T09:00:15;94821.91;;;32.36;32.88
20027;BME280;10174;42.688;23.344;2023-06-10T09:02:41;94766.91;;;30.53;34.97
20027;BME280;10174;42.688;23.344;2023-06-10T09:05:07;94757.88;;;30.34;35.94
20027;BME280;10174;42.688;23.344;2023-06-10T09:07:35;94789.63;;;30.19;36.17
20027;BME280;10174;42.688;23.344;2023-06-10T09:10:02;94817.00;;;30.80;34.79
20027;BME280;10174;42.688;23.344;2023-06-10T09:12:29;94829.06;;;31.60;34.17
20027;BME280;10174;42.688;23.344;2023-06-10T09:14:55;94840.81;;;31.75;34.26
20027;BME280;10174;42.688;23.344;2023-06-10T09:17:21;94771.53;;;32.34;32.53
20027;BME280;10174;42.688;23.344;2023-06-10T09:19:47;94803.75;;;33.84;29.02
20027;BME280;10174;42.688;23.344;2023-06-10T09:22:13;94822.06;;;35.35;29.36
20027;BME280;10174;42.688;23.344;2023-06-10T09:24:39;94815.22;;;34.50;nan
20027;BME280;10174;42.688;23.344;2023-06-10T09:27:06;94820.13;;;34.99;28.01
20027;BME280;10174;42.688;23.344;2023-06-10T09:29:45;94784.63;;;33.42;29.56
20027;BME280;10174;42.688;23.344;2023-06-10T09:32:10;94825.75;;;33.31;30.61
20027;BME280;10174;42.688;23.344;2023-06-10T09:34:36;94832.19;;;32.97;30.61
20027;BME280;10174;42.688;23.344;2023-06-10T09:37:02;94821.97;;;33.17;30.27
20027;BME280;10174;42.688;23.344;2023-06-10T09:39:27;94818.63;;;33.97;30.09
20027;BME280;10174;42.688;23.344;2023-06-10T09:41:52;94816.31;;;33.72;30.97
20027;BME280;10174;42.688;23.344;2023-06-10T09:44:19;94802.03;;;33.90;30.57
20027;BME280;10174;42.688;23.344;2023-06-10T09:46:48;94808.53;;;34.27;29.20
20027;BME280;10174;42.688;23.344;2023-06-10T09:49:18;94788.78;;;34.18;29.83
20027;BME280;10174;42.688;23.344;2023-06-10T09:51:53;94808.44;;;34.87;29.03
20027;BME280;10174;42.688;23.344;2023-06-10T09:54:20;94801.34;;;34.06;28.58
20027;BME280;10174;42.688;23.344;2023-06-10T09:56:51;94815.78;;;31.37;31.99
20027;BME280;10174;42.688;23.344;2023-06-10T09:59:28;94805.94;;;32.12;32.09
20027;BME280;10174;42.688;23.344;2023-06-10T10:01:55;94765.78;;;32.21;30.41
20027;BME280;10174;42.688;23.344;2023-06-10T10:04:24;94787.28;;;32.09;30.58
20027;BME280;10174;42.688;23.344;2023-06-10T10:06:50;94790.53;;;32.04;32.12
20027;BME280;10174;42.688;23.344;2023-06-10T10:09:16;94773.69;;;32.80;31.14
20027;BME280;10174;42.688;23.344;2023-06-10T10:11:43;94709.66;;;35.63;27.31
20027;BME280;10174;42.688;23.344;2023-06-10T10:14:09;94763.25;;;36.17;27.37
20027;BME280;10174;42.688;23.344;2023-06-10T10:16:40;94777.22;;;37.11;26.01
20027;BME280;10174;42.688;23.344;2023-06-10T10:19:19;94773.44;;;36.24;27.63
20027;BME280;10174;42.688;23.344;2023-06-10T10:22:01;94765.66;;;36.31;26.60
20027;BME280;10174;42.688;23.344;2023-06-10T10:24:48;94752.75;;;37.50;24.76
20027;BME280;10174;42.688;23.344;2023-06-10T10:27:18;94757.16;;;35.93;26.29
20027;BME280;10174;42.688;23.344;2023-06-10T10:29:48;94774.72;;;35.47;27.70
20027;BME280;10174;42.688;23.344;2023-06-10T10:32:14;94751.75;;;36.96;25.71
20027;BME280;10174;42.688;23.344;2023-06-10T10:34:57;94764.81;;;34.60;27.88
20027;BME280;10174;42.688;23.344;2023-06-10T10:37:28;94741.72;;;33.83;29.12
20027;BME280;10174;42.688;23.344;2023-06-10T10:39:54;94757.75;;;35.55;27.61
20027;BME280;10174;42.688;23.344;2023-06-10T10:42:20;94764.41;;;34.78;27.48
20027;BME280;10174;42.688;23.344;2023-06-10T10:44:46;94757.72;;;32.57;30.79
20027;BME280;10174;42.688;23.344;2023-06-10T10:47:13;94751.53;;;32.15;31.82
20027;BME280;10174;42.688;23.344;2023-06-10T10:49:39;94762.88;;;32.59;31.00
20027;BME280;10174;42.688;23.344;2023-06-10T10:52:11;94734.22;;;31.31;31.83
20027;BME280;10174;42.688;23.344;2023-06-10T10:54:37;94743.69;;;32.10;32.10
20027;BME280;10174;42.688;23.344;2023-06-10T10:59:54;94740.28;;;32.26;31.10
20027;BME280;10174;42.688;23.344;2023-06-10T11:02:42;94740.63;;;32.59;30.11
20027;BME280;10174;42.688;23.344;2023-06-10T11:05:10;94740.56;;;33.13;30.50
20027;BME280;10174;42.688;23.344;2023-06-10T11:07:36;94746.16;;;34.01;29.15
20027;BME280;10174;42.688;23.344;2023-06-10T11:15:18;94730.66;;;34.89;28.25
20027;BME280;10174;42.688;23.344;2023-06-10T11:23:09;94730.56;;;29.37;35.27
20027;BME280;10174;42.688;23.344;2023-06-10T11:25:39;94712.44;;;28.89;37.24
20027;BME280;10174;42.688;23.344;2023-06-10T11:28:18;94686.38;;;28.33;38.20
20027;BME280;10174;42.688;23.344;2023-06-10T11:30:44;94692.56;;;27.94;39.93
20027;BME280;10174;42.688;23.344;2023-06-10T11:33:14;94693.97;;;27.44;39.87
20027;BME280;10174;42.688;23.344;2023-06-10T11:35:40;94672.66;;;27.34;41.17
20027;BME280;10174;42.688;23.344;2023-06-10T11:38:06;94710.13;;;27.49;40.73
20027;BME280;10174;42.688;23.344;2023-06-10T11:40:31;94669.88;;;27.34;41.65
20027;BME280;10174;42.688;23.344;2023-06-10T11:42:57;94595.97;;;26.84;41.54
20027;BME280;10174;42.688;23.344;2023-06-10T11:45:23;94695.66;;;27.74;41.23
20027;BME280;10174;42.688;23.344;2023-06-10T11:47:58;94683.00;;;27.59;39.27
20027;BME280;10174;42.688;23.344;2023-06-10T11:50:33;94687.94;;;27.28;37.56
20027;BME280;10174;42.688;23.344;2023-06-10T11:52:59;94678.81;;;27.16;38.13
20027;BME280;10174;42.688;23.344;2023-06-10T12:01:05;94671.13;;;27.47;36.69
20027;BME280;10174;42.688;23.344;2023-06-10T12:03:37;94669.66;;;27.75;34.33
20027;BME280;10174;42.688;23.344;2023-06-10T12:06:06;94657.09;;;27.88;34.02
20027;BME280;10174;42.688;23.344;2023-06-10T12:08:32;94683.94;;;28.06;33.86
20027;BME280;10174;42.688;23.344;2023-06-10T12:10:58;94676.03;;;27.97;33.65
20027;BME280;10174;42.688;23.344;2023-06-10T12:13:26;94676.09;;;28.58;34.27
20027;BME280;10174;42.688;23.344;2023-06-10T12:15:52;94645.72;;;28.58;33.03
20027;BME280;10174;42.688;23.344;2023-06-10T12:18:21;94680.06;;;28.65;32.25
20027;BME280;10174;42.688;23.344;2023-06-10T12:20:47;94657.06;;;27.81;33.99
20027;BME280;10174;42.688;23.344;2023-06-10T12:23:14;94611.06;;;27.08;33.36
20027;BME280;10174;42.688;23.344;2023-06-10T12:25:57;94675.78;;;27.32;33.77
20027;BME280;10174;42.688;23.344;2023-06-10T12:28:25;94672.50;;;27.12;33.97
20027;BME280;10174;42.688;23.344;2023-06-10T12:30:52;94638.53;;;26.90;34.03
20027;BME280;10174;42.688;23.344;2023-06-10T12:33:30;94661.50;;;27.12;34.21
20027;BME280;10174;42.688;23.344;2023-06-10T12:35:56;94660.59;;;26.94;34.22
20027;BME280;10174;42.688;23.344;2023-06-10T12:38:22;94668.63;;;27.24;34.31
20027;BME280;10174;42.688;23.344;2023-06-10T12:40:50;94659.13;;;27.14;35.12
20027;BME280;10174;42.688;23.344;2023-06-10T12:43:33;94644.72;;;26.76;34.63
20027;BME280;10174;42.688;23.344;2023-06-10T12:46:09;94640.09;;;26.88;34.34
20027;BME280;10174;42.688;23.344;2023-06-10T12:48:35;94589.13;;;26.60;35.24
20027;BME280;10174;42.688;23.344;2023-06-10T12:51:01;94635.81;;;27.01;34.29
20027;BME280;10174;42.688;23.344;2023-06-10T12:53:26;94656.19;;;26.86;34.43
20027;BME280;10174;42.688;23.344;2023-06-10T12:55:52;94660.16;;;26.84;34.51
20027;BME280;10174;42.688;23.344;2023-06-10T12:58:21;94643.00;;;26.57;34.55
20027;BME280;10174;42.688;23.344;2023-06-10T13:00:47;94653.44;;;26.86;34.47
20027;BME280;10174;42.688;23.344;2023-06-10T13:03:13;94640.38;;;26.75;35.38
20027;BME280;10174;42.688;23.344;2023-06-10T13:05:39;94661.56;;;27.27;36.15
20027;BME280;10174;42.688;23.344;2023-06-10T13:08:06;94667.97;;;27.45;35.02